Cobb County-Mc Collum Field Atlanta US
ICAO: KRYY
IATA: RYY
Category: Medium
Scheduled Services: No

Elevation: 1040 ft
TransAlt. 18000 ft.

Airport Communications:
ATLANTA APP/DEP:121
AWOS 3:128.125
CTAF:125.9
GND:119
MC COLLUM TWR:125.9
UNICOM:122.7

KRYY Zoom In..

If you have problems with the map follow the link
https://www.worldairports.se/pages/airport.php?
ICAO=KRYY

Runways:

(A) RW 09 length 6311 ft width 100 ft
---- / hdg 93

(B) RW 27 length 6311 ft width 100 ft
ILS 111.90 / hdg 273

Location; KRYY
Day. 16 / Time. 02.48 Zulu
* Altimeter: 30.13
* Temperature: 01° c. 33.8°f.
* Wind from: 290° Speed 11 kn with Gusts up to 17 kn.
Dewpoint: -02° c.
Visibility: 10 Statute Miles.
Clouds: Overcast 1500 ft.

KRYY 160248Z 29011G17KT 10SM OVC015 01/M02 A3013 RMK AO2 SLP927 T00061022 53011


Wind From 290°
Speed 11 kn.

 
 
jpsmedia.com for Web Design worldairports.se 2018   terms of use